Time;durP1;ratioP1;P1;durP2;ratioP2;P2;SDS_P1;SDS_P2;PMS_P1;PMS_P2;Temp;Humidity;BMP_temperature;BMP_pressure;BME280_temperature;BME280_humidity;BME280_pressure;Samples;Min_cycle;Max_cycle;Signal;HPM_P1;HPM_P2
2023/01/12 00:01:56;;;;;;;7.55;1.27;;;;;;;;;;6209581;23;20044;-41
2023/01/12 00:04:23;;;;;;;6.28;0.68;;;;;;;;;;6214519;23;20081;-43
2023/01/12 00:06:51;;;;;;;6.20;0.70;;;;;;;;;;6197298;22;20433;-42
2023/01/12 00:09:19;;;;;;;7.90;0.68;;;;;;;;;;6217193;23;20070;-42
2023/01/12 00:11:47;;;;;;;5.78;0.50;;;;;;;;;;6204687;23;20052;-42
2023/01/12 00:14:16;;;;;;;4.55;1.00;;;;;;;;;;6215316;23;20103;-42
2023/01/12 00:16:43;;;;;;;4.15;0.38;;;;;;;;;;6208268;23;20031;-43
2023/01/12 00:19:12;;;;;;;2.93;0.30;;;;;;;;;;6219498;23;20426;-42
2023/01/12 00:21:58;;;;;;;3.15;0.20;;;;;;;;;;6206373;23;20051;-43
2023/01/12 00:24:27;;;;;;;3.85;0.38;;;;;;;;;;6202638;23;20024;-42
2023/01/12 00:26:55;;;;;;;3.22;0.30;;;;;;;;;;6212791;23;20448;-41
2023/01/12 00:29:25;;;;;;;5.03;0.50;;;;;;;;;;6207813;23;20095;-43
2023/01/12 00:31:54;;;;;;;4.10;0.50;;;;;;;;;;6214453;23;20012;-42
2023/01/12 00:34:22;;;;;;;2.53;0.30;;;;;;;;;;6209697;23;20557;-41
2023/01/12 00:36:51;;;;;;;5.53;0.30;;;;;;;;;;6222975;23;20016;-41
2023/01/12 00:39:19;;;;;;;6.60;0.63;;;;;;;;;;6219907;22;20448;-42
2023/01/12 00:47:20;;;;;;;5.43;0.70;;;;;;;;;;6215221;23;20031;-42
2023/01/12 00:49:49;;;;;;;3.67;0.63;;;;;;;;;;6210602;23;20066;-43
2023/01/12 00:52:18;;;;;;;8.45;0.90;;;;;;;;;;6220127;23;20016;-43
2023/01/12 00:54:57;;;;;;;5.38;0.45;;;;;;;;;;6207398;23;20392;-42
2023/01/12 00:57:24;;;;;;;4.03;0.40;;;;;;;;;;6218042;23;20091;-42
2023/01/12 00:59:58;;;;;;;3.13;0.40;;;;;;;;;;6209290;23;20088;-42
2023/01/12 01:02:27;;;;;;;4.50;0.68;;;;;;;;;;6219639;23;20211;-43
2023/01/12 01:04:55;;;;;;;5.25;0.30;;;;;;;;;;6204183;23;20020;-42
2023/01/12 01:07:23;;;;;;;2.85;0.50;;;;;;;;;;6216777;23;20024;-42
2023/01/12 01:09:51;;;;;;;4.03;0.33;;;;;;;;;;6207424;23;20042;-42
2023/01/12 01:12:22;;;;;;;2.13;0.32;;;;;;;;;;6213398;23;20382;-44
2023/01/12 01:14:49;;;;;;;4.68;0.40;;;;;;;;;;6217385;23;20071;-42
2023/01/12 01:17:18;;;;;;;8.43;0.52;;;;;;;;;;6210108;23;20019;-43
2023/01/12 01:19:47;;;;;;;4.57;0.40;;;;;;;;;;6220757;23;20039;-42
2023/01/12 01:22:14;;;;;;;3.23;0.30;;;;;;;;;;6203115;23;20012;-42
2023/01/12 01:24:42;;;;;;;3.38;0.38;;;;;;;;;;6216788;23;20444;-42
2023/01/12 01:27:10;;;;;;;3.90;0.40;;;;;;;;;;6208354;23;20340;-42
2023/01/12 01:29:37;;;;;;;3.03;0.30;;;;;;;;;;6214676;22;20022;-44
2023/01/12 01:32:05;;;;;;;2.67;0.40;;;;;;;;;;6209197;23;20020;-42
2023/01/12 01:34:34;;;;;;;3.27;0.30;;;;;;;;;;6215594;23;20091;-42
2023/01/12 01:37:02;;;;;;;4.30;0.50;;;;;;;;;;6209775;23;20015;-42
2023/01/12 01:39:30;;;;;;;6.78;0.50;;;;;;;;;;6215480;23;20086;-44
2023/01/12 01:41:57;;;;;;;3.60;0.30;;;;;;;;;;6212741;23;20043;-45
2023/01/12 01:44:43;;;;;;;4.47;0.50;;;;;;;;;;6216214;23;20107;-45
2023/01/12 01:47:17;;;;;;;4.50;0.57;;;;;;;;;;6212029;23;20016;-44
2023/01/12 01:49:50;;;;;;;3.58;0.65;;;;;;;;;;6214425;23;20015;-43
2023/01/12 01:52:18;;;;;;;2.70;0.43;;;;;;;;;;6225537;23;20059;-45
2023/01/12 01:54:48;;;;;;;2.50;0.30;;;;;;;;;;6207818;23;20451;-43
2023/01/12 01:57:16;;;;;;;5.43;0.32;;;;;;;;;;6218055;23;20055;-43
2023/01/12 01:59:45;;;;;;;3.33;0.50;;;;;;;;;;6208373;23;20675;-42
2023/01/12 02:02:13;;;;;;;2.25;0.30;;;;;;;;;;6216815;23;20095;-42
2023/01/12 02:04:41;;;;;;;3.58;0.57;;;;;;;;;;6214754;23;20261;-43
2023/01/12 02:07:10;;;;;;;2.17;0.32;;;;;;;;;;6218154;23;20020;-43
2023/01/12 02:09:38;;;;;;;2.22;0.30;;;;;;;;;;6203803;23;20059;-43
2023/01/12 02:17:44;;;;;;;3.40;0.30;;;;;;;;;;6219406;23;20016;-43
2023/01/12 02:20:25;;;;;;;2.00;0.30;;;;;;;;;;6212597;23;20121;-42
2023/01/12 02:23:01;;;;;;;3.08;0.20;;;;;;;;;;6196126;23;20016;-42
2023/01/12 02:25:37;;;;;;;1.60;0.20;;;;;;;;;;6217971;23;20099;-42
2023/01/12 02:28:10;;;;;;;3.10;0.40;;;;;;;;;;6218880;23;20012;-43
2023/01/12 02:30:46;;;;;;;2.40;0.30;;;;;;;;;;6207206;23;20092;-42
2023/01/12 02:33:32;;;;;;;3.35;0.25;;;;;;;;;;6216283;23;20039;-42
2023/01/12 02:36:06;;;;;;;3.15;0.40;;;;;;;;;;6211147;23;20023;-44
2023/01/12 02:38:36;;;;;;;1.30;0.20;;;;;;;;;;6220874;23;20040;-42
2023/01/12 02:41:07;;;;;;;6.90;0.50;;;;;;;;;;6222534;23;20016;-43
2023/01/12 02:43:35;;;;;;;1.35;0.20;;;;;;;;;;6214451;23;20012;-43
2023/01/12 02:46:10;;;;;;;2.78;0.40;;;;;;;;;;6213807;23;20016;-42
2023/01/12 02:48:41;;;;;;;2.08;0.25;;;;;;;;;;6206798;22;20047;-43
2023/01/12 02:51:11;;;;;;;1.33;0.30;;;;;;;;;;6219737;23;20070;-42
2023/01/12 02:53:43;;;;;;;2.00;0.28;;;;;;;;;;6215019;23;20573;-42
2023/01/12 02:56:16;;;;;;;2.10;0.30;;;;;;;;;;6224215;22;20203;-44
2023/01/12 02:58:47;;;;;;;2.35;0.38;;;;;;;;;;6218090;23;20054;-43
2023/01/12 03:01:15;;;;;;;2.78;0.40;;;;;;;;;;6200601;23;20046;-43
2023/01/12 03:03:43;;;;;;;3.57;0.20;;;;;;;;;;6216686;23;20016;-44
2023/01/12 03:06:16;;;;;;;3.63;0.30;;;;;;;;;;6210682;23;20035;-42
2023/01/12 03:08:44;;;;;;;2.60;0.30;;;;;;;;;;6219180;23;20016;-42
2023/01/12 03:11:13;;;;;;;2.42;0.30;;;;;;;;;;6208456;23;20083;-43
2023/01/12 03:13:43;;;;;;;2.08;0.25;;;;;;;;;;6220601;23;20039;-43
2023/01/12 03:16:12;;;;;;;3.83;0.40;;;;;;;;;;6210779;23;20016;-42
2023/01/12 03:18:43;;;;;;;2.05;0.30;;;;;;;;;;6218557;22;20393;-43
2023/01/12 03:21:12;;;;;;;1.60;0.30;;;;;;;;;;6208728;23;20039;-42
2023/01/12 03:23:44;;;;;;;1.80;0.20;;;;;;;;;;6220499;23;20411;-42
2023/01/12 03:26:14;;;;;;;1.83;0.30;;;;;;;;;;6212093;23;20171;-43
2023/01/12 03:28:45;;;;;;;2.03;0.30;;;;;;;;;;6221109;23;20103;-42
2023/01/12 03:31:14;;;;;;;1.60;0.20;;;;;;;;;;6207136;23;20016;-43
2023/01/12 03:33:43;;;;;;;2.85;0.30;;;;;;;;;;6217317;23;20107;-43
2023/01/12 03:36:16;;;;;;;2.90;0.20;;;;;;;;;;6209464;23;20099;-43
2023/01/12 03:38:49;;;;;;;1.00;0.20;;;;;;;;;;6218369;23;20095;-43
2023/01/12 03:41:20;;;;;;;3.17;0.20;;;;;;;;;;6214403;23;20071;-42
2023/01/12 03:43:50;;;;;;;0.98;0.20;;;;;;;;;;6193617;23;20461;-42
2023/01/12 03:46:21;;;;;;;1.90;0.32;;;;;;;;;;6221286;23;20521;-43
2023/01/12 03:48:52;;;;;;;1.55;0.20;;;;;;;;;;6210435;23;20016;-42
2023/01/12 03:51:22;;;;;;;1.77;0.40;;;;;;;;;;6211546;23;20016;-43
2023/01/12 03:53:52;;;;;;;1.30;0.20;;;;;;;;;;6213850;23;20339;-42
2023/01/12 03:56:21;;;;;;;1.40;0.20;;;;;;;;;;6223783;23;20435;-44
2023/01/12 03:58:49;;;;;;;1.20;0.20;;;;;;;;;;6210408;23;20864;-42
2023/01/12 04:01:16;;;;;;;1.15;0.20;;;;;;;;;;6221278;23;20050;-43
2023/01/12 04:03:44;;;;;;;2.10;0.28;;;;;;;;;;6216331;23;20020;-43
2023/01/12 04:06:12;;;;;;;1.20;0.20;;;;;;;;;;6220353;22;20447;-42
2023/01/12 04:08:40;;;;;;;1.40;0.30;;;;;;;;;;6209801;23;20051;-42
2023/01/12 04:13:50;;;;;;;1.60;0.22;;;;;;;;;;6219879;23;20055;-43
2023/01/12 04:16:18;;;;;;;2.50;0.40;;;;;;;;;;6205880;23;20023;-42
2023/01/12 04:18:45;;;;;;;2.33;0.20;;;;;;;;;;6222183;23;20016;-42
2023/01/12 04:24:07;;;;;;;1.25;0.20;;;;;;;;;;6216462;23;20020;-42
2023/01/12 04:26:36;;;;;;;2.67;0.38;;;;;;;;;;6212842;23;20475;-43
2023/01/12 04:29:03;;;;;;;5.88;1.10;;;;;;;;;;6210763;23;20047;-43
2023/01/12 04:31:31;;;;;;;3.73;0.20;;;;;;;;;;6213245;22;20013;-43
2023/01/12 04:33:59;;;;;;;1.65;0.20;;;;;;;;;;6217894;23;20012;-42
2023/01/12 04:36:27;;;;;;;3.83;0.28;;;;;;;;;;6203558;23;20044;-42
2023/01/12 04:38:58;;;;;;;2.00;0.20;;;;;;;;;;6217672;23;20095;-42
2023/01/12 04:41:26;;;;;;;2.42;0.45;;;;;;;;;;6214364;22;20012;-43
2023/01/12 04:43:55;;;;;;;2.00;0.20;;;;;;;;;;6217441;23;20465;-42
2023/01/12 04:46:22;;;;;;;2.58;0.30;;;;;;;;;;6204705;23;20047;-43
2023/01/12 04:48:50;;;;;;;1.67;0.30;;;;;;;;;;6207163;23;20106;-43
2023/01/12 04:51:18;;;;;;;1.67;0.30;;;;;;;;;;6216251;23;20035;-42
2023/01/12 04:53:47;;;;;;;2.72;0.20;;;;;;;;;;6212617;23;20027;-43
2023/01/12 04:56:14;;;;;;;2.63;0.40;;;;;;;;;;6214892;23;20016;-42
2023/01/12 04:58:42;;;;;;;1.70;0.10;;;;;;;;;;6184766;23;20390;-43
2023/01/12 05:01:16;;;;;;;2.50;0.20;;;;;;;;;;6214353;23;20091;-42
2023/01/12 05:03:45;;;;;;;1.90;0.30;;;;;;;;;;6214942;23;20012;-42
2023/01/12 05:06:13;;;;;;;1.42;0.20;;;;;;;;;;6217233;23;20044;-42
2023/01/12 05:11:27;;;;;;;2.50;0.25;;;;;;;;;;6203265;23;20494;-42
2023/01/12 05:13:55;;;;;;;1.30;0.20;;;;;;;;;;6220773;23;20020;-42
2023/01/12 05:16:24;;;;;;;2.58;0.20;;;;;;;;;;6211234;23;20099;-43
2023/01/12 05:18:53;;;;;;;1.83;0.30;;;;;;;;;;6213621;23;20048;-42
2023/01/12 05:21:22;;;;;;;1.10;0.20;;;;;;;;;;6209350;23;20095;-44
2023/01/12 05:23:49;;;;;;;2.05;0.20;;;;;;;;;;6216852;23;20091;-42
2023/01/12 05:26:17;;;;;;;2.53;0.30;;;;;;;;;;6212084;23;20050;-42
2023/01/12 05:28:47;;;;;;;1.02;0.20;;;;;;;;;;6216264;23;20012;-42
2023/01/12 05:31:14;;;;;;;4.32;0.22;;;;;;;;;;6201280;22;20012;-41
2023/01/12 05:33:44;;;;;;;1.20;0.20;;;;;;;;;;6217292;23;20019;-42
2023/01/12 05:36:13;;;;;;;1.73;0.20;;;;;;;;;;6211453;23;20127;-44
2023/01/12 05:38:41;;;;;;;2.45;0.30;;;;;;;;;;6205724;23;20516;-42
2023/01/12 05:41:11;;;;;;;1.50;0.20;;;;;;;;;;6204244;23;20111;-41
2023/01/12 05:43:50;;;;;;;2.35;0.32;;;;;;;;;;6212458;23;20016;-44
2023/01/12 05:46:19;;;;;;;2.23;0.30;;;;;;;;;;6204652;23;20601;-43
2023/01/12 05:48:48;;;;;;;1.92;0.20;;;;;;;;;;6219580;23;20124;-42
2023/01/12 05:51:16;;;;;;;1.48;0.20;;;;;;;;;;6205460;23;20099;-41
2023/01/12 05:53:44;;;;;;;1.27;0.20;;;;;;;;;;6217506;23;20044;-42
2023/01/12 05:56:14;;;;;;;1.00;0.13;;;;;;;;;;6193449;23;20078;-42
2023/01/12 05:58:42;;;;;;;1.93;0.30;;;;;;;;;;6214377;23;20066;-42
2023/01/12 06:01:10;;;;;;;1.73;0.28;;;;;;;;;;6197758;23;20050;-44
2023/01/12 06:03:38;;;;;;;1.73;0.20;;;;;;;;;;6213205;23;20020;-42
2023/01/12 06:06:07;;;;;;;1.55;0.20;;;;;;;;;;6203536;23;20031;-41
2023/01/12 06:08:36;;;;;;;2.55;0.20;;;;;;;;;;6213779;23;20090;-43
2023/01/12 06:11:04;;;;;;;1.90;0.30;;;;;;;;;;6207973;23;20115;-43
2023/01/12 06:16:26;;;;;;;0.82;0.10;;;;;;;;;;6143706;22;20390;-42
2023/01/12 06:18:54;;;;;;;1.60;0.30;;;;;;;;;;6213229;23;20134;-43
2023/01/12 06:21:23;;;;;;;1.95;0.30;;;;;;;;;;6203502;23;20023;-43
2023/01/12 06:23:51;;;;;;;1.67;0.30;;;;;;;;;;6209188;23;20340;-44
2023/01/12 06:26:19;;;;;;;4.05;0.25;;;;;;;;;;6214116;23;20012;-42
2023/01/12 06:28:46;;;;;;;3.28;0.20;;;;;;;;;;6212349;23;20016;-41
2023/01/12 06:31:14;;;;;;;1.38;0.20;;;;;;;;;;6209711;23;20095;-41
2023/01/12 06:33:42;;;;;;;0.95;0.10;;;;;;;;;;6221296;23;20016;-43
2023/01/12 06:36:10;;;;;;;1.97;0.20;;;;;;;;;;6207445;23;20023;-42
2023/01/12 06:38:40;;;;;;;1.25;0.10;;;;;;;;;;6214823;23;20020;-42
2023/01/12 06:42:27;;;;;;;3.85;0.20;;;;;;;;;;6210639;23;20027;-41
2023/01/12 06:43:57;;;;;;;1.48;0.28;;;;;;;;;;6201668;23;20529;-42
2023/01/12 06:46:25;;;;;;;2.67;0.20;;;;;;;;;;6213398;23;20086;-42
2023/01/12 06:48:54;;;;;;;3.50;0.30;;;;;;;;;;6207279;23;20091;-42
2023/01/12 06:51:22;;;;;;;1.80;0.20;;;;;;;;;;6217509;23;20066;-41
2023/01/12 06:53:51;;;;;;;2.50;0.20;;;;;;;;;;6208797;23;20091;-42
2023/01/12 06:56:19;;;;;;;2.75;0.25;;;;;;;;;;6217770;23;20078;-42
2023/01/12 06:58:52;;;;;;;5.10;0.25;;;;;;;;;;6212195;23;20051;-43
2023/01/12 07:01:20;;;;;;;1.13;0.20;;;;;;;;;;6207757;23;20016;-44
2023/01/12 07:03:47;;;;;;;2.88;0.30;;;;;;;;;;6218978;23;20067;-42
2023/01/12 07:06:15;;;;;;;1.77;0.20;;;;;;;;;;6214304;23;20012;-45
2023/01/12 07:08:43;;;;;;;1.10;0.20;;;;;;;;;;6221066;23;20012;-42
2023/01/12 07:11:13;;;;;;;1.83;0.28;;;;;;;;;;6207994;23;20023;-42
2023/01/12 07:13:41;;;;;;;1.10;0.20;;;;;;;;;;6213460;23;20023;-42
2023/01/12 07:16:09;;;;;;;1.48;0.15;;;;;;;;;;6210480;23;20020;-42
2023/01/12 07:18:36;;;;;;;2.28;0.22;;;;;;;;;;6214897;23;20044;-42
2023/01/12 07:21:07;;;;;;;1.27;0.20;;;;;;;;;;6218907;23;20419;-42
2023/01/12 07:23:52;;;;;;;1.48;0.20;;;;;;;;;;6220992;23;20075;-41
2023/01/12 07:26:21;;;;;;;1.60;0.20;;;;;;;;;;6207771;23;20047;-41
2023/01/12 07:28:48;;;;;;;3.13;0.20;;;;;;;;;;6212340;23;20015;-42
2023/01/12 07:31:17;;;;;;;2.15;0.20;;;;;;;;;;6204473;23;20016;-42
2023/01/12 07:33:46;;;;;;;1.77;0.20;;;;;;;;;;6225490;23;20036;-42
2023/01/12 07:36:13;;;;;;;1.77;0.30;;;;;;;;;;6209483;23;20657;-42
2023/01/12 07:38:42;;;;;;;1.80;0.20;;;;;;;;;;6214035;23;20046;-41
2023/01/12 07:42:22;;;;;;;1.48;0.30;;;;;;;;;;6212723;23;20521;-41
2023/01/12 07:44:01;;;;;;;2.20;0.30;;;;;;;;;;6205101;22;20337;-43
2023/01/12 07:46:29;;;;;;;1.60;0.20;;;;;;;;;;6218535;23;20102;-43
2023/01/12 07:48:56;;;;;;;2.00;0.30;;;;;;;;;;6216468;23;20016;-42
2023/01/12 07:51:24;;;;;;;1.87;0.20;;;;;;;;;;6217587;23;20023;-41
2023/01/12 07:53:51;;;;;;;2.83;0.20;;;;;;;;;;6212670;23;20392;-41
2023/01/12 07:56:19;;;;;;;1.52;0.20;;;;;;;;;;6218840;23;20055;-42
2023/01/12 07:58:47;;;;;;;2.75;0.40;;;;;;;;;;6210499;23;20020;-42
2023/01/12 08:01:16;;;;;;;1.83;0.28;;;;;;;;;;6212682;23;20039;-41
2023/01/12 08:03:44;;;;;;;1.40;0.20;;;;;;;;;;6215102;23;20012;-41
2023/01/12 08:06:11;;;;;;;1.55;0.30;;;;;;;;;;6217600;23;20070;-42
2023/01/12 08:08:39;;;;;;;2.10;0.40;;;;;;;;;;6214052;23;20016;-43
2023/01/12 08:11:08;;;;;;;1.67;0.20;;;;;;;;;;6215884;23;20020;-41
2023/01/12 08:13:36;;;;;;;2.65;0.20;;;;;;;;;;6208217;23;20012;-43
2023/01/12 08:16:06;;;;;;;3.50;0.43;;;;;;;;;;6213542;23;20035;-42
2023/01/12 08:18:38;;;;;;;2.35;0.30;;;;;;;;;;6211781;23;20095;-44
2023/01/12 08:21:08;;;;;;;1.92;0.20;;;;;;;;;;6217795;23;20458;-42
2023/01/12 08:23:39;;;;;;;2.92;0.40;;;;;;;;;;6216682;23;20113;-41
2023/01/12 08:26:11;;;;;;;3.25;0.38;;;;;;;;;;6210570;23;20058;-41
2023/01/12 08:28:42;;;;;;;3.17;0.50;;;;;;;;;;6218401;23;20104;-43
2023/01/12 08:31:12;;;;;;;2.20;0.35;;;;;;;;;;6207547;23;20020;-42
2023/01/12 08:33:42;;;;;;;1.52;0.20;;;;;;;;;;6223255;23;20008;-41
2023/01/12 08:36:12;;;;;;;3.05;0.30;;;;;;;;;;6203626;23;20012;-42
2023/01/12 08:38:42;;;;;;;1.77;0.20;;;;;;;;;;6213829;23;20020;-43
2023/01/12 08:44:05;;;;;;;1.73;0.20;;;;;;;;;;6205604;23;20020;-43
2023/01/12 08:46:34;;;;;;;2.78;0.28;;;;;;;;;;6222050;23;20020;-42
2023/01/12 08:49:07;;;;;;;3.00;0.20;;;;;;;;;;6212176;23;20020;-44
2023/01/12 08:51:35;;;;;;;2.00;0.38;;;;;;;;;;6213586;23;20012;-42
2023/01/12 08:54:05;;;;;;;1.47;0.30;;;;;;;;;;6216781;22;20027;-43
2023/01/12 08:56:33;;;;;;;2.47;0.22;;;;;;;;;;6207465;23;20692;-42
2023/01/12 08:59:00;;;;;;;1.63;0.30;;;;;;;;;;6216174;23;20020;-41
2023/01/12 09:01:33;;;;;;;1.23;0.20;;;;;;;;;;6204760;23;20061;-42
2023/01/12 09:04:00;;;;;;;1.77;0.20;;;;;;;;;;6209860;23;20012;-42
2023/01/12 09:06:31;;;;;;;1.90;0.30;;;;;;;;;;6218975;23;20020;-43
2023/01/12 09:08:59;;;;;;;1.80;0.25;;;;;;;;;;6206880;23;20112;-43
2023/01/12 09:11:28;;;;;;;1.67;0.30;;;;;;;;;;6209437;23;20463;-42
2023/01/12 09:13:57;;;;;;;2.08;0.30;;;;;;;;;;6214335;23;20043;-41
2023/01/12 09:16:25;;;;;;;1.90;0.20;;;;;;;;;;6208815;23;20012;-41
2023/01/12 09:18:53;;;;;;;1.97;0.30;;;;;;;;;;6213777;23;20078;-42
2023/01/12 09:21:22;;;;;;;2.05;0.30;;;;;;;;;;6206315;23;20020;-43
2023/01/12 09:23:51;;;;;;;4.00;0.63;;;;;;;;;;6216120;23;20089;-41
2023/01/12 09:26:21;;;;;;;2.30;0.20;;;;;;;;;;6187825;23;20458;-41
2023/01/12 09:28:50;;;;;;;3.13;0.30;;;;;;;;;;6170887;23;20401;-42
2023/01/12 09:31:19;;;;;;;1.93;0.20;;;;;;;;;;6194847;23;20834;-41
2023/01/12 09:33:47;;;;;;;3.35;0.30;;;;;;;;;;6203053;23;20019;-43
2023/01/12 09:36:20;;;;;;;2.65;0.40;;;;;;;;;;6199964;23;20507;-43
2023/01/12 09:38:47;;;;;;;2.17;0.35;;;;;;;;;;6189362;23;20538;-43
2023/01/12 09:47:00;;;;;;;3.53;0.30;;;;;;;;;;6187551;23;20294;-42
2023/01/12 09:49:30;;;;;;;2.38;0.28;;;;;;;;;;6201919;23;20462;-41
2023/01/12 09:52:03;;;;;;;2.30;0.35;;;;;;;;;;6190668;23;20024;-45
2023/01/12 09:54:33;;;;;;;1.90;0.20;;;;;;;;;;6207648;23;20020;-41
2023/01/12 09:57:10;;;;;;;1.63;0.23;;;;;;;;;;6187816;23;20016;-42
2023/01/12 09:59:57;;;;;;;3.80;0.60;;;;;;;;;;6197192;23;20031;-40
2023/01/12 10:02:25;;;;;;;3.30;0.30;;;;;;;;;;6205690;23;20016;-43
2023/01/12 10:04:54;;;;;;;2.05;0.20;;;;;;;;;;6200248;23;20020;-41
2023/01/12 10:07:21;;;;;;;1.67;0.28;;;;;;;;;;6202941;23;20027;-41
2023/01/12 10:09:49;;;;;;;2.03;0.33;;;;;;;;;;6199221;23;20039;-41
2023/01/12 10:12:24;;;;;;;2.47;0.40;;;;;;;;;;6204501;23;20265;-43
2023/01/12 10:15:05;;;;;;;1.58;0.20;;;;;;;;;;6209784;23;20392;-41
2023/01/12 10:17:37;;;;;;;2.10;0.30;;;;;;;;;;6218283;23;20020;-41
2023/01/12 10:20:26;;;;;;;2.95;0.30;;;;;;;;;;6223593;23;20023;-42
2023/01/12 10:22:56;;;;;;;1.23;0.20;;;;;;;;;;6210126;23;20024;-43
2023/01/12 10:25:27;;;;;;;1.52;0.22;;;;;;;;;;6224185;23;20258;-42
2023/01/12 10:27:57;;;;;;;2.42;0.35;;;;;;;;;;6202140;23;20841;-42
2023/01/12 10:30:27;;;;;;;1.95;0.30;;;;;;;;;;6212101;23;20086;-41
2023/01/12 10:32:54;;;;;;;1.80;0.20;;;;;;;;;;6210597;23;20111;-43
2023/01/12 10:35:23;;;;;;;1.53;0.20;;;;;;;;;;6216506;23;20047;-44
2023/01/12 10:37:52;;;;;;;2.22;0.20;;;;;;;;;;6204528;23;20020;-40
2023/01/12 10:40:22;;;;;;;1.40;0.20;;;;;;;;;;6220505;22;20016;-43
2023/01/12 10:46:01;;;;;;;2.10;0.30;;;;;;;;;;6204966;23;20027;-41
2023/01/12 10:48:29;;;;;;;1.60;0.20;;;;;;;;;;6218553;23;20019;-41
2023/01/12 10:50:58;;;;;;;1.20;0.20;;;;;;;;;;6215667;23;20016;-42
2023/01/12 10:53:31;;;;;;;2.97;0.30;;;;;;;;;;6223446;23;20036;-41
2023/01/12 10:56:01;;;;;;;1.75;0.20;;;;;;;;;;6213533;23;20526;-42
2023/01/12 10:58:32;;;;;;;2.35;0.20;;;;;;;;;;6215433;23;20082;-41
2023/01/12 11:01:00;;;;;;;1.17;0.13;;;;;;;;;;6218878;23;20329;-41
2023/01/12 11:03:31;;;;;;;2.10;0.30;;;;;;;;;;6213582;23;20190;-44
2023/01/12 11:06:13;;;;;;;1.35;0.20;;;;;;;;;;6220096;23;20016;-42
2023/01/12 11:08:42;;;;;;;1.65;0.20;;;;;;;;;;6214925;23;20012;-41
2023/01/12 11:11:21;;;;;;;3.05;0.30;;;;;;;;;;6215307;23;20012;-46
2023/01/12 11:13:53;;;;;;;1.30;0.20;;;;;;;;;;6211241;23;20047;-44
2023/01/12 11:16:21;;;;;;;2.60;0.28;;;;;;;;;;6216541;23;20012;-44
2023/01/12 11:18:53;;;;;;;1.98;0.30;;;;;;;;;;6220417;23;20350;-43
2023/01/12 11:21:23;;;;;;;1.77;0.20;;;;;;;;;;6211212;23;20016;-42
2023/01/12 11:23:54;;;;;;;2.47;0.50;;;;;;;;;;6219955;23;20063;-42
2023/01/12 11:26:24;;;;;;;1.20;0.20;;;;;;;;;;6192593;23;20303;-44
2023/01/12 11:28:55;;;;;;;2.17;0.20;;;;;;;;;;6218467;23;20403;-41
2023/01/12 11:31:26;;;;;;;3.60;0.30;;;;;;;;;;6206269;23;20051;-42
2023/01/12 11:33:55;;;;;;;1.83;0.30;;;;;;;;;;6218918;23;20018;-42
2023/01/12 11:36:25;;;;;;;1.67;0.20;;;;;;;;;;6216511;23;20062;-42
2023/01/12 11:38:54;;;;;;;2.20;0.30;;;;;;;;;;6220613;23;20035;-43
2023/01/12 11:41:28;;;;;;;1.10;0.20;;;;;;;;;;6211253;23;20051;-41
2023/01/12 11:43:59;;;;;;;1.55;0.20;;;;;;;;;;6221979;22;20028;-42
2023/01/12 11:46:29;;;;;;;1.58;0.20;;;;;;;;;;6210476;23;20023;-41
2023/01/12 11:49:01;;;;;;;2.88;0.38;;;;;;;;;;6224275;23;20070;-41
2023/01/12 11:51:29;;;;;;;1.50;0.30;;;;;;;;;;6222304;23;20020;-41
2023/01/12 11:53:57;;;;;;;1.50;0.20;;;;;;;;;;6216354;23;20058;-45
2023/01/12 11:56:42;;;;;;;2.38;0.20;;;;;;;;;;6222504;23;20008;-45
2023/01/12 11:59:13;;;;;;;1.55;0.20;;;;;;;;;;6198962;23;20047;-45
2023/01/12 12:01:48;;;;;;;1.95;0.70;;;;;;;;;;6215586;23;20378;-43
2023/01/12 12:04:21;;;;;;;1.97;0.40;;;;;;;;;;6199662;23;20023;-43
2023/01/12 12:07:03;;;;;;;1.45;0.20;;;;;;;;;;6219098;23;20362;-41
2023/01/12 12:09:39;;;;;;;1.60;0.22;;;;;;;;;;6180340;23;20027;-42
2023/01/12 12:12:09;;;;;;;1.67;0.20;;;;;;;;;;6202229;23;20111;-42
2023/01/12 12:14:44;;;;;;;1.38;0.20;;;;;;;;;;6197117;23;20090;-41
2023/01/12 12:17:16;;;;;;;2.67;0.57;;;;;;;;;;6193992;23;20095;-42
2023/01/12 12:19:46;;;;;;;2.75;0.30;;;;;;;;;;6202700;23;20286;-41
2023/01/12 12:22:26;;;;;;;1.65;0.20;;;;;;;;;;6190401;23;20370;-42
2023/01/12 12:25:07;;;;;;;1.52;0.22;;;;;;;;;;6204836;23;20048;-41
2023/01/12 12:27:42;;;;;;;2.03;0.20;;;;;;;;;;6191031;23;20095;-42
2023/01/12 12:30:22;;;;;;;1.33;0.20;;;;;;;;;;6194903;23;20106;-41
2023/01/12 12:32:51;;;;;;;1.38;0.20;;;;;;;;;;6205912;23;20224;-43
2023/01/12 12:35:43;;;;;;;2.63;0.20;;;;;;;;;;6205827;23;20055;-41
2023/01/12 12:38:18;;;;;;;2.30;0.30;;;;;;;;;;6196579;23;20035;-42
2023/01/12 12:46:29;;;;;;;1.70;0.35;;;;;;;;;;6187082;23;20686;-41
2023/01/12 12:48:59;;;;;;;1.10;0.20;;;;;;;;;;6190992;23;20435;-41
2023/01/12 12:51:30;;;;;;;1.48;0.20;;;;;;;;;;6201673;23;20451;-41
2023/01/12 12:53:59;;;;;;;1.05;0.20;;;;;;;;;;6196621;22;20056;-43
2023/01/12 12:56:29;;;;;;;1.10;0.20;;;;;;;;;;6200030;23;20103;-42
2023/01/12 12:58:57;;;;;;;1.88;0.25;;;;;;;;;;6196408;23;20047;-43
2023/01/12 13:01:43;;;;;;;3.03;0.30;;;;;;;;;;6180830;23;20016;-42
2023/01/12 13:04:37;;;;;;;7.05;0.73;;;;;;;;;;6199793;23;20027;-43
2023/01/12 13:07:05;;;;;;;7.78;0.60;;;;;;;;;;6192794;23;20066;-41
2023/01/12 13:09:36;;;;;;;3.37;0.40;;;;;;;;;;6199944;23;20095;-42
2023/01/12 13:12:23;;;;;;;3.90;0.40;;;;;;;;;;6195551;23;20458;-42
2023/01/12 13:15:18;;;;;;;3.38;0.50;;;;;;;;;;6195879;23;20418;-41
2023/01/12 13:17:47;;;;;;;4.82;0.40;;;;;;;;;;6123055;23;20077;-42
2023/01/12 13:20:37;;;;;;;2.90;0.25;;;;;;;;;;6193897;23;20023;-42
2023/01/12 13:23:19;;;;;;;3.93;0.30;;;;;;;;;;6191825;23;20749;-41
2023/01/12 13:25:50;;;;;;;4.72;0.40;;;;;;;;;;6198172;23;20490;-41
2023/01/12 13:28:19;;;;;;;5.00;0.30;;;;;;;;;;6183339;23;20750;-44
2023/01/12 13:30:59;;;;;;;5.82;0.50;;;;;;;;;;6192432;23;20012;-42
2023/01/12 13:33:28;;;;;;;5.57;0.75;;;;;;;;;;6208652;23;20024;-41
2023/01/12 13:36:02;;;;;;;6.33;0.50;;;;;;;;;;6180723;23;20446;-44
2023/01/12 13:38:37;;;;;;;5.80;0.95;;;;;;;;;;6188430;23;20086;-42
2023/01/12 13:41:14;;;;;;;3.40;0.40;;;;;;;;;;6182135;23;20044;-42
2023/01/12 13:43:42;;;;;;;15.45;1.30;;;;;;;;;;6200210;23;20094;-45
2023/01/12 13:46:13;;;;;;;5.75;0.57;;;;;;;;;;6178239;23;20102;-43
2023/01/12 13:48:42;;;;;;;7.30;1.37;;;;;;;;;;6183651;23;20601;-45
2023/01/12 13:51:16;;;;;;;7.85;0.75;;;;;;;;;;6193398;23;20012;-42
2023/01/12 13:53:44;;;;;;;6.28;0.50;;;;;;;;;;6184927;23;20016;-42
2023/01/12 13:56:17;;;;;;;5.22;0.47;;;;;;;;;;6195479;23;20031;-41
2023/01/12 13:58:45;;;;;;;6.32;0.70;;;;;;;;;;6183155;23;20020;-41
2023/01/12 14:01:17;;;;;;;5.57;0.80;;;;;;;;;;6200251;23;20017;-42
2023/01/12 14:03:55;;;;;;;11.63;1.00;;;;;;;;;;6189826;23;20027;-41
2023/01/12 14:06:29;;;;;;;10.75;0.90;;;;;;;;;;6197514;23;20051;-41
2023/01/12 14:09:04;;;;;;;8.90;0.82;;;;;;;;;;6180404;23;20016;-42
2023/01/12 14:11:39;;;;;;;9.68;1.33;;;;;;;;;;6197827;23;20374;-42
2023/01/12 14:19:59;;;;;;;12.40;1.48;;;;;;;;;;6180091;23;20798;-41
2023/01/12 14:22:29;;;;;;;19.42;1.83;;;;;;;;;;6173723;23;20093;-43
2023/01/12 14:25:12;;;;;;;12.68;1.70;;;;;;;;;;6173507;23;20103;-42
2023/01/12 14:27:48;;;;;;;22.67;1.70;;;;;;;;;;6183284;23;20073;-41
2023/01/12 14:30:15;;;;;;;12.10;2.15;;;;;;;;;;6214888;23;20020;-44
2023/01/12 14:32:45;;;;;;;13.35;1.88;;;;;;;;;;6212332;23;20016;-44
2023/01/12 14:35:16;;;;;;;13.05;1.55;;;;;;;;;;6211695;23;20095;-42
2023/01/12 14:37:47;;;;;;;10.70;1.55;;;;;;;;;;6213426;23;20047;-41
2023/01/12 14:40:20;;;;;;;16.97;1.70;;;;;;;;;;6213959;23;20015;-41
2023/01/12 14:48:23;;;;;;;18.92;2.13;;;;;;;;;;6221609;23;20022;-43
2023/01/12 14:51:01;;;;;;;13.07;1.88;;;;;;;;;;6217533;23;20016;-41
2023/01/12 14:53:33;;;;;;;17.43;2.33;;;;;;;;;;6211308;23;20051;-42
2023/01/12 14:56:09;;;;;;;14.40;1.90;;;;;;;;;;6219863;23;20016;-42
2023/01/12 14:58:37;;;;;;;15.52;1.65;;;;;;;;;;6209216;23;20079;-40
2023/01/12 15:01:05;;;;;;;17.58;2.63;;;;;;;;;;6221447;23;20023;-43
2023/01/12 15:03:33;;;;;;;24.20;2.00;;;;;;;;;;6210837;23;20016;-41
2023/01/12 15:06:14;;;;;;;14.27;1.90;;;;;;;;;;6219794;23;20020;-41
2023/01/12 15:08:54;;;;;;;24.48;2.67;;;;;;;;;;6206390;23;20050;-41
2023/01/12 15:11:29;;;;;;;24.15;3.22;;;;;;;;;;6218383;23;20024;-41
2023/01/12 15:13:57;;;;;;;13.38;1.70;;;;;;;;;;6208222;23;20673;-41
2023/01/12 15:27:28;;;;;;;11.65;1.17;;;;;;;;;;6212953;23;20043;-41
2023/01/12 15:29:56;;;;;;;11.40;1.35;;;;;;;;;;6214843;23;20085;-43
2023/01/12 15:32:30;;;;;;;8.70;1.57;;;;;;;;;;6213217;23;20231;-41
2023/01/12 15:35:14;;;;;;;13.05;1.38;;;;;;;;;;6217545;23;20027;-41
2023/01/12 15:37:42;;;;;;;13.13;1.40;;;;;;;;;;6213300;23;20016;-41
2023/01/12 15:40:13;;;;;;;21.27;3.15;;;;;;;;;;6217465;23;20016;-41
2023/01/12 15:42:42;;;;;;;16.88;1.35;;;;;;;;;;6210363;23;20473;-42
2023/01/12 15:45:18;;;;;;;13.87;2.03;;;;;;;;;;6216170;23;20534;-42
2023/01/12 15:47:46;;;;;;;22.48;2.85;;;;;;;;;;6218723;23;20056;-42
2023/01/12 15:50:14;;;;;;;18.17;2.10;;;;;;;;;;6207087;23;20401;-42
2023/01/12 15:52:41;;;;;;;22.55;2.92;;;;;;;;;;6211622;23;20422;-42
2023/01/12 15:55:13;;;;;;;20.02;2.60;;;;;;;;;;6212028;23;20478;-41
2023/01/12 15:57:42;;;;;;;19.50;2.20;;;;;;;;;;6214777;23;20020;-41
2023/01/12 16:00:14;;;;;;;24.08;2.95;;;;;;;;;;6204753;23;20047;-41
2023/01/12 16:02:44;;;;;;;17.70;2.45;;;;;;;;;;6222248;23;20016;-41
2023/01/12 16:05:12;;;;;;;20.48;2.60;;;;;;;;;;6210043;23;20108;-42